Time;durP1;ratioP1;P1;durP2;ratioP2;P2;SDS_P1;SDS_P2;PMS_P1;PMS_P2;Temp;Humidity;BMP_temperature;BMP_pressure;BME280_temperature;BME280_humidity;BME280_pressure;Samples;Min_cycle;Max_cycle;Signal;HPM_P1;HPM_P2
2023/11/10 00:00:55;;;;;;;;;;;;;;;8.66;100.00;99303.72;5014958;28;20269;-77
2023/11/10 00:03:22;;;;;;;;;;;;;;;8.65;100.00;99317.78;5028607;28;19928;-76
2023/11/10 00:05:49;;;;;;;;;;;;;;;8.64;100.00;99319.53;5009037;28;19928;-75
2023/11/10 00:08:17;;;;;;;;;;;;;;;8.61;100.00;99307.50;5024810;28;19925;-74
2023/11/10 00:10:47;;;;;;;;;;;;;;;8.60;100.00;99305.84;5028960;28;19971;-75
2023/11/10 00:13:15;;;;;;;;;;;;;;;8.59;100.00;99312.00;4995268;28;19988;-74
2023/11/10 00:15:43;;;;;;;;;;;;;;;8.58;100.00;99302.47;5012876;28;19948;-75
2023/11/10 00:18:10;;;;;;;;;;;;;;;8.54;100.00;99303.63;5025570;28;19953;-74
2023/11/10 00:20:37;;;;;;;;;;;;;;;8.52;100.00;99295.06;4995967;28;20543;-74
2023/11/10 00:23:06;;;;;;;;;;;;;;;8.52;100.00;99310.78;5030922;28;19925;-73
2023/11/10 00:25:34;;;;;;;;;;;;;;;8.50;100.00;99303.97;5030488;28;19925;-74
2023/11/10 00:28:02;;;;;;;;;;;;;;;8.46;100.00;99307.75;5004511;28;20263;-75
2023/11/10 00:30:29;;;;;;;;;;;;;;;8.42;100.00;99307.16;5029142;28;19929;-75
2023/11/10 00:32:56;;;;;;;;;;;;;;;8.41;100.00;99309.88;5011439;28;20422;-71
2023/11/10 00:35:23;;;;;;;;;;;;;;;8.35;100.00;99306.69;5021605;28;19948;-67
2023/11/10 00:37:50;;;;;;;;;;;;;;;8.34;100.00;99304.19;5010740;28;20036;-66
2023/11/10 00:40:17;;;;;;;;;;;;;;;8.29;100.00;99299.28;5029846;28;19925;-74
2023/11/10 00:42:44;;;;;;;;;;;;;;;8.26;100.00;99290.78;5013798;28;19925;-70
2023/11/10 00:45:12;;;;;;;;;;;;;;;8.22;100.00;99290.16;5027433;28;19983;-75
2023/11/10 00:47:39;;;;;;;;;;;;;;;8.20;100.00;99292.06;5029648;28;19953;-74
2023/11/10 00:50:06;;;;;;;;;;;;;;;8.17;100.00;99286.19;5027854;28;20070;-73
2023/11/10 00:52:33;;;;;;;;;;;;;;;8.15;100.00;99291.56;4995779;28;19925;-78
2023/11/10 00:55:00;;;;;;;;;;;;;;;8.12;100.00;99297.84;5028002;28;20008;-68
2023/11/10 00:57:27;;;;;;;;;;;;;;;8.09;100.00;99292.78;5028355;28;19979;-73
2023/11/10 00:59:55;;;;;;;;;;;;;;;8.06;100.00;99289.53;5027135;28;19941;-75
2023/11/10 01:02:22;;;;;;;;;;;;;;;8.03;100.00;99300.25;5022294;28;20462;-72
2023/11/10 01:04:50;;;;;;;;;;;;;;;8.00;100.00;99303.09;5028255;28;20394;-74
2023/11/10 01:07:17;;;;;;;;;;;;;;;7.99;100.00;99289.16;5040598;28;19968;-69
2023/11/10 01:09:44;;;;;;;;;;;;;;;7.97;100.00;99290.19;5022656;28;20353;-72
2023/11/10 01:12:11;;;;;;;;;;;;;;;7.95;100.00;99281.59;5009042;28;19956;-73
2023/11/10 01:14:38;;;;;;;;;;;;;;;7.94;100.00;99293.88;5026990;28;19971;-69
2023/11/10 01:17:05;;;;;;;;;;;;;;;7.93;100.00;99284.34;5027101;28;20392;-71
2023/11/10 01:19:32;;;;;;;;;;;;;;;7.92;100.00;99289.66;5025632;28;19986;-69
2023/11/10 01:21:59;;;;;;;;;;;;;;;7.92;100.00;99290.50;5006381;28;19930;-70
2023/11/10 01:24:26;;;;;;;;;;;;;;;7.91;100.00;99294.06;5009598;28;20028;-74
2023/11/10 01:26:53;;;;;;;;;;;;;;;7.92;100.00;99282.66;5025210;28;20008;-71
2023/11/10 01:29:20;;;;;;;;;;;;;;;7.92;100.00;99277.41;5020264;28;20746;-71
2023/11/10 01:31:47;;;;;;;;;;;;;;;7.91;100.00;99269.66;5008413;28;20455;-71
2023/11/10 01:34:16;;;;;;;;;;;;;;;7.89;100.00;99274.19;5022863;28;19925;-68
2023/11/10 01:36:44;;;;;;;;;;;;;;;7.86;100.00;99283.09;4990738;28;20094;-68
2023/11/10 01:39:11;;;;;;;;;;;;;;;7.85;100.00;99274.38;5028439;28;20008;-73
2023/11/10 01:41:39;;;;;;;;;;;;;;;7.82;100.00;99274.59;5026892;28;19929;-73
2023/11/10 01:44:06;;;;;;;;;;;;;;;7.83;100.00;99278.91;5020594;28;19931;-72
2023/11/10 01:46:39;;;;;;;;;;;;;;;7.81;100.00;99272.91;5009732;28;19952;-72
2023/11/10 01:49:07;;;;;;;;;;;;;;;7.82;100.00;99266.72;5023095;28;19983;-70
2023/11/10 01:51:34;;;;;;;;;;;;;;;7.81;100.00;99267.69;5011195;28;19960;-73
2023/11/10 01:54:01;;;;;;;;;;;;;;;7.81;100.00;99269.47;5027317;28;20424;-74
2023/11/10 01:56:28;;;;;;;;;;;;;;;7.80;100.00;99265.19;5022300;28;19929;-73
2023/11/10 01:58:55;;;;;;;;;;;;;;;7.79;100.00;99260.84;5026829;28;19953;-74
2023/11/10 02:01:22;;;;;;;;;;;;;;;7.78;100.00;99283.59;5022694;28;19968;-72
2023/11/10 02:03:49;;;;;;;;;;;;;;;7.77;100.00;99274.06;5024840;28;20023;-71
2023/11/10 02:06:16;;;;;;;;;;;;;;;7.82;100.00;99263.28;5027576;28;20019;-72
2023/11/10 02:08:44;;;;;;;;;;;;;;;7.85;100.00;99265.69;5015589;28;19925;-74
2023/11/10 02:11:11;;;;;;;;;;;;;;;7.83;100.00;99265.81;5026908;28;19975;-67
2023/11/10 02:13:38;;;;;;;;;;;;;;;7.81;100.00;99270.28;5028455;28;20346;-73
2023/11/10 02:16:05;;;;;;;;;;;;;;;7.78;100.00;99269.66;5025609;28;19975;-73
2023/11/10 02:18:33;;;;;;;;;;;;;;;7.77;100.00;99270.63;5013967;28;19995;-71
2023/11/10 02:21:00;;;;;;;;;;;;;;;7.77;100.00;99268.00;5011322;28;19975;-71
2023/11/10 02:23:27;;;;;;;;;;;;;;;7.76;100.00;99253.22;5024813;28;19968;-70
2023/11/10 02:25:55;;;;;;;;;;;;;;;7.74;100.00;99249.88;5027177;28;19928;-73
2023/11/10 02:28:23;;;;;;;;;;;;;;;7.72;100.00;99244.75;5009966;28;19961;-75
2023/11/10 02:30:50;;;;;;;;;;;;;;;7.72;100.00;99243.91;5025974;28;19933;-72
2023/11/10 02:33:17;;;;;;;;;;;;;;;7.71;100.00;99234.38;5027994;28;19926;-67
2023/11/10 02:35:44;;;;;;;;;;;;;;;7.69;100.00;99228.38;5009979;28;19925;-72
2023/11/10 02:38:11;;;;;;;;;;;;;;;7.68;100.00;99235.41;5025974;28;19976;-69
2023/11/10 02:40:38;;;;;;;;;;;;;;;7.66;100.00;99228.63;5009397;28;20442;-68
2023/11/10 02:43:06;;;;;;;;;;;;;;;7.64;100.00;99228.72;5026689;28;20087;-69
2023/11/10 02:45:39;;;;;;;;;;;;;;;7.60;100.00;99225.47;5023093;28;20057;-70
2023/11/10 02:48:06;;;;;;;;;;;;;;;7.59;100.00;99217.72;5005163;28;19925;-71
2023/11/10 02:50:33;;;;;;;;;;;;;;;7.58;100.00;99226.53;5007099;28;19971;-76
2023/11/10 02:53:00;;;;;;;;;;;;;;;7.57;100.00;99215.22;5027333;28;19983;-72
2023/11/10 02:55:27;;;;;;;;;;;;;;;7.55;100.00;99216.25;5027627;28;19969;-72
2023/11/10 02:57:54;;;;;;;;;;;;;;;7.51;100.00;99206.94;5007635;28;19954;-67
2023/11/10 03:00:21;;;;;;;;;;;;;;;7.50;100.00;99210.50;5022516;28;19929;-75
2023/11/10 03:02:48;;;;;;;;;;;;;;;7.50;100.00;99213.13;5025919;28;19941;-72
2023/11/10 03:05:16;;;;;;;;;;;;;;;7.46;100.00;99206.41;5022236;28;19968;-74
2023/11/10 03:07:43;;;;;;;;;;;;;;;7.45;100.00;99202.13;4994266;28;19965;-70
2023/11/10 03:10:11;;;;;;;;;;;;;;;7.45;100.00;99194.28;5028192;28;19951;-75
2023/11/10 03:12:38;;;;;;;;;;;;;;;7.42;100.00;99191.84;5021838;28;19933;-73
2023/11/10 03:15:06;;;;;;;;;;;;;;;7.41;100.00;99175.31;5025066;28;19951;-76
2023/11/10 03:17:33;;;;;;;;;;;;;;;7.40;100.00;99172.81;5015857;28;20006;-74
2023/11/10 03:20:02;;;;;;;;;;;;;;;7.38;100.00;99178.13;5022668;28;20019;-68
2023/11/10 03:22:29;;;;;;;;;;;;;;;7.34;100.00;99182.75;5026785;28;19979;-75
2023/11/10 03:24:56;;;;;;;;;;;;;;;7.32;100.00;99189.88;5025068;28;19925;-74
2023/11/10 03:27:23;;;;;;;;;;;;;;;7.31;100.00;99182.13;5023850;28;19957;-72
2023/11/10 03:29:50;;;;;;;;;;;;;;;7.29;100.00;99182.22;5037165;28;20521;-72
2023/11/10 03:32:20;;;;;;;;;;;;;;;7.29;100.00;99179.59;5007463;28;19929;-71
2023/11/10 03:34:47;;;;;;;;;;;;;;;7.29;100.00;99176.13;5006500;28;19937;-70
2023/11/10 03:37:14;;;;;;;;;;;;;;;7.30;100.00;99188.31;5026928;28;19925;-74
2023/11/10 03:39:41;;;;;;;;;;;;;;;7.30;100.00;99206.63;5023023;28;19957;-78
2023/11/10 03:42:09;;;;;;;;;;;;;;;7.32;100.00;99204.75;5021288;28;19926;-65
2023/11/10 03:44:36;;;;;;;;;;;;;;;7.31;100.00;99198.66;5026737;28;21785;-71
2023/11/10 03:47:03;;;;;;;;;;;;;;;7.34;100.00;99197.63;5025956;28;19949;-70
2023/11/10 03:49:30;;;;;;;;;;;;;;;7.36;100.00;99201.81;5008746;28;19933;-66
2023/11/10 03:51:57;;;;;;;;;;;;;;;7.39;100.00;99200.78;5003624;28;20008;-67
2023/11/10 03:54:24;;;;;;;;;;;;;;;7.40;100.00;99199.81;5026976;28;19929;-74
2023/11/10 03:56:51;;;;;;;;;;;;;;;7.38;100.00;99195.63;5026218;28;19957;-73
2023/11/10 03:59:18;;;;;;;;;;;;;;;7.34;100.00;99195.00;5022713;28;20045;-71
2023/11/10 04:01:46;;;;;;;;;;;;;;;7.33;100.00;99201.16;5026705;28;19929;-71
2023/11/10 04:04:13;;;;;;;;;;;;;;;7.30;100.00;99196.16;5024306;28;20324;-68
2023/11/10 04:06:40;;;;;;;;;;;;;;;7.27;100.00;99186.72;5009313;28;19929;-74
2023/11/10 04:09:09;;;;;;;;;;;;;;;7.28;100.00;99191.00;5023448;28;19925;-71
2023/11/10 04:11:36;;;;;;;;;;;;;;;7.27;100.00;99188.50;5007404;28;19937;-70
2023/11/10 04:14:04;;;;;;;;;;;;;;;7.29;100.00;99179.59;5013280;28;19929;-69
2023/11/10 04:16:31;;;;;;;;;;;;;;;7.31;100.00;99184.75;5025729;28;19968;-68
2023/11/10 04:18:58;;;;;;;;;;;;;;;7.32;100.00;99181.19;5024727;28;19926;-74
2023/11/10 04:21:26;;;;;;;;;;;;;;;7.34;100.00;99189.78;4991472;28;20008;-68
2023/11/10 04:23:53;;;;;;;;;;;;;;;7.33;100.00;99177.59;5023011;28;20299;-66
2023/11/10 04:26:20;;;;;;;;;;;;;;;7.36;100.00;99172.16;5020610;28;20482;-73
2023/11/10 04:28:47;;;;;;;;;;;;;;;7.36;100.00;99185.25;5023908;28;19976;-74
2023/11/10 04:31:15;;;;;;;;;;;;;;;7.38;100.00;99185.16;5024708;28;20075;-78
2023/11/10 04:33:46;;;;;;;;;;;;;;;7.41;100.00;99198.03;5024832;28;19936;-74
2023/11/10 04:36:13;;;;;;;;;;;;;;;7.44;100.00;99189.97;5001582;28;19964;-73
2023/11/10 04:38:43;;;;;;;;;;;;;;;7.45;100.00;99192.47;5027618;28;20011;-70
2023/11/10 04:41:10;;;;;;;;;;;;;;;7.46;100.00;99193.31;5005947;28;19925;-76
2023/11/10 04:43:39;;;;;;;;;;;;;;;7.47;100.00;99187.97;5014194;28;20024;-74
2023/11/10 04:46:08;;;;;;;;;;;;;;;7.50;100.00;99186.94;5025259;28;19926;-76
2023/11/10 04:48:35;;;;;;;;;;;;;;;7.53;100.00;99186.72;5027304;28;19929;-72
2023/11/10 04:51:03;;;;;;;;;;;;;;;7.55;100.00;99185.66;5025820;28;19964;-72
2023/11/10 04:53:30;;;;;;;;;;;;;;;7.57;100.00;99188.19;5029574;28;19933;-65
2023/11/10 04:55:57;;;;;;;;;;;;;;;7.60;100.00;99180.94;5011737;28;20434;-70
2023/11/10 04:58:24;;;;;;;;;;;;;;;7.61;100.00;99182.63;5012037;28;19982;-70
2023/11/10 05:00:51;;;;;;;;;;;;;;;7.65;100.00;99200.72;5030593;28;19929;-71
2023/11/10 05:03:18;;;;;;;;;;;;;;;7.65;100.00;99198.13;5027935;28;19957;-71
2023/11/10 05:05:46;;;;;;;;;;;;;;;7.68;100.00;99200.53;5011924;28;20498;-67
2023/11/10 05:08:13;;;;;;;;;;;;;;;7.69;100.00;99204.81;5014049;28;20009;-71
2023/11/10 05:10:41;;;;;;;;;;;;;;;7.71;100.00;99206.41;4995640;28;19931;-67
2023/11/10 05:13:08;;;;;;;;;;;;;;;7.73;100.00;99206.28;5028061;28;20396;-68
2023/11/10 05:15:38;;;;;;;;;;;;;;;7.73;100.00;99211.53;5027501;28;19929;-71
2023/11/10 05:18:07;;;;;;;;;;;;;;;7.74;100.00;99207.94;5020845;28;19987;-71
2023/11/10 05:20:34;;;;;;;;;;;;;;;7.76;100.00;99208.69;5024344;28;19964;-69
2023/11/10 05:23:02;;;;;;;;;;;;;;;7.78;100.00;99205.00;5011302;28;20024;-70
2023/11/10 05:25:29;;;;;;;;;;;;;;;7.79;100.00;99208.47;5026854;28;19940;-69
2023/11/10 05:27:57;;;;;;;;;;;;;;;7.80;100.00;99212.78;5043467;28;19929;-69
2023/11/10 05:30:27;;;;;;;;;;;;;;;7.79;100.00;99214.56;5030935;28;19926;-67
2023/11/10 05:32:54;;;;;;;;;;;;;;;7.81;100.00;99217.06;5006716;28;19960;-68
2023/11/10 05:35:22;;;;;;;;;;;;;;;7.80;100.00;99216.22;5028801;28;19957;-68
2023/11/10 05:37:49;;;;;;;;;;;;;;;7.79;100.00;99218.94;5022882;28;20340;-66
2023/11/10 05:40:17;;;;;;;;;;;;;;;7.75;100.00;99213.09;4993665;28;20303;-68
2023/11/10 05:42:44;;;;;;;;;;;;;;;7.77;100.00;99219.06;5027220;28;19959;-69
2023/11/10 05:45:11;;;;;;;;;;;;;;;7.77;100.00;99220.84;5026855;28;20047;-69
2023/11/10 05:47:39;;;;;;;;;;;;;;;7.76;100.00;99219.19;5026105;28;19952;-68
2023/11/10 05:50:06;;;;;;;;;;;;;;;7.75;100.00;99220.97;5023592;28;19956;-67
2023/11/10 05:52:36;;;;;;;;;;;;;;;7.73;100.00;99227.25;5021463;28;19930;-68
2023/11/10 05:55:03;;;;;;;;;;;;;;;7.68;100.00;99230.19;5011305;28;19925;-67
2023/11/10 05:57:31;;;;;;;;;;;;;;;7.67;100.00;99231.13;5019402;28;20621;-70
2023/11/10 05:59:58;;;;;;;;;;;;;;;7.69;100.00;99236.25;5007785;28;19932;-70
2023/11/10 06:02:25;;;;;;;;;;;;;;;7.64;100.00;99238.34;5023046;28;19983;-69
2023/11/10 06:04:52;;;;;;;;;;;;;;;7.66;100.00;99239.09;5024303;28;19960;-69
2023/11/10 06:07:20;;;;;;;;;;;;;;;7.69;100.00;99254.59;5024113;28;19937;-68
2023/11/10 06:09:49;;;;;;;;;;;;;;;7.68;100.00;99242.44;5022318;28;20012;-68
2023/11/10 06:12:17;;;;;;;;;;;;;;;7.69;100.00;99238.88;5022512;28;20559;-70
2023/11/10 06:14:44;;;;;;;;;;;;;;;7.68;100.00;99245.06;5019913;28;19984;-68
2023/11/10 06:17:11;;;;;;;;;;;;;;;7.68;100.00;99248.50;4996166;28;19929;-69
2023/11/10 06:19:38;;;;;;;;;;;;;;;7.68;100.00;99248.50;5004005;28;20387;-68
2023/11/10 06:22:05;;;;;;;;;;;;;;;7.67;100.00;99243.38;5006148;28;19933;-70
2023/11/10 06:24:32;;;;;;;;;;;;;;;7.67;100.00;99246.00;5024896;28;20011;-69
2023/11/10 06:27:00;;;;;;;;;;;;;;;7.66;100.00;99258.28;5026678;28;19959;-68
2023/11/10 06:29:27;;;;;;;;;;;;;;;7.65;100.00;99255.72;5020787;28;19929;-69
2023/11/10 06:31:54;;;;;;;;;;;;;;;7.62;100.00;99256.81;5025340;28;19932;-67
2023/11/10 06:34:24;;;;;;;;;;;;;;;7.65;100.00;99242.63;5021594;28;19937;-67
2023/11/10 06:36:51;;;;;;;;;;;;;;;7.68;100.00;99242.44;5020724;28;19972;-70
2023/11/10 06:39:22;;;;;;;;;;;;;;;7.67;100.00;99249.47;5005824;28;19987;-69
2023/11/10 06:41:49;;;;;;;;;;;;;;;7.70;100.00;99248.41;5022090;28;20359;-68
2023/11/10 06:44:19;;;;;;;;;;;;;;;7.72;100.00;99254.38;5026950;28;19929;-67
2023/11/10 06:46:49;;;;;;;;;;;;;;;7.75;100.00;99260.25;5024523;28;20008;-68
2023/11/10 06:49:16;;;;;;;;;;;;;;;7.79;100.00;99256.47;5006919;28;20354;-69
2023/11/10 06:51:43;;;;;;;;;;;;;;;7.75;100.00;99255.00;5008024;28;19932;-68
2023/11/10 06:54:10;;;;;;;;;;;;;;;7.81;100.00;99258.97;5026477;28;20091;-68
2023/11/10 06:56:53;;;;;;;;;;;;;;;7.80;100.00;99250.28;5009975;28;20403;-68
2023/11/10 06:59:20;;;;;;;;;;;;;;;7.86;100.00;99256.88;5024232;28;20315;-68
2023/11/10 07:01:48;;;;;;;;;;;;;;;7.89;100.00;99254.06;5017018;28;19932;-68
2023/11/10 07:04:15;;;;;;;;;;;;;;;7.91;100.00;99249.53;5023970;28;19928;-68
2023/11/10 07:06:43;;;;;;;;;;;;;;;7.93;100.00;99252.06;5005885;28;19929;-67
2023/11/10 07:09:12;;;;;;;;;;;;;;;7.93;100.00;99257.31;5023328;28;19933;-67
2023/11/10 07:11:41;;;;;;;;;;;;;;;7.96;100.00;99251.84;5005389;28;19924;-70
2023/11/10 07:14:08;;;;;;;;;;;;;;;7.94;100.00;99256.34;5024155;28;20395;-66
2023/11/10 07:16:36;;;;;;;;;;;;;;;7.96;100.00;99259.69;5023137;28;19975;-68
2023/11/10 07:19:04;;;;;;;;;;;;;;;7.96;100.00;99268.38;5024939;28;19933;-67
2023/11/10 07:21:31;;;;;;;;;;;;;;;7.97;100.00;99274.47;5010915;28;20004;-68
2023/11/10 07:23:58;;;;;;;;;;;;;;;7.98;100.00;99266.50;5009921;28;19987;-69
2023/11/10 07:26:50;;;;;;;;;;;;;;;8.05;100.00;99277.41;5024087;28;19956;-68
2023/11/10 07:29:18;;;;;;;;;;;;;;;8.10;100.00;99276.16;5029352;28;19929;-69
2023/11/10 07:31:45;;;;;;;;;;;;;;;8.12;100.00;99274.25;5027006;28;19968;-67
2023/11/10 07:34:12;;;;;;;;;;;;;;;8.16;100.00;99267.00;5017688;28;19965;-67
2023/11/10 07:36:39;;;;;;;;;;;;;;;8.21;100.00;99272.75;5022992;28;19952;-67
2023/11/10 07:39:06;;;;;;;;;;;;;;;8.25;100.00;99276.00;5024459;28;19964;-66
2023/11/10 07:41:34;;;;;;;;;;;;;;;8.26;100.00;99275.88;5024977;28;19929;-67
2023/11/10 07:44:01;;;;;;;;;;;;;;;8.29;100.00;99270.44;5026325;28;20264;-67
2023/11/10 07:46:29;;;;;;;;;;;;;;;8.34;100.00;99277.97;5024266;28;19925;-67
2023/11/10 07:48:56;;;;;;;;;;;;;;;8.43;100.00;99282.59;5020656;28;20031;-67
2023/11/10 07:51:24;;;;;;;;;;;;;;;8.41;100.00;99278.41;5008579;28;19929;-72
2023/11/10 07:53:51;;;;;;;;;;;;;;;8.49;100.00;99276.91;5024276;28;20403;-67
2023/11/10 07:56:18;;;;;;;;;;;;;;;8.49;100.00;99276.91;5024873;28;20399;-66
2023/11/10 07:58:45;;;;;;;;;;;;;;;8.56;100.00;99272.06;5024449;28;19979;-67
2023/11/10 08:01:13;;;;;;;;;;;;;;;8.67;100.00;99266.88;5022342;28;19979;-69
2023/11/10 08:03:42;;;;;;;;;;;;;;;8.77;100.00;99260.00;5020196;28;19961;-66
2023/11/10 08:06:10;;;;;;;;;;;;;;;8.90;100.00;99254.69;5024856;28;20330;-73
2023/11/10 08:08:38;;;;;;;;;;;;;;;9.15;100.00;99258.13;5024848;28;19964;-72
2023/11/10 08:11:05;;;;;;;;;;;;;;;9.40;98.33;99268.44;5024893;28;20434;-65
2023/11/10 08:13:37;;;;;;;;;;;;;;;9.52;96.62;99269.31;5029336;28;20402;-66
2023/11/10 08:16:05;;;;;;;;;;;;;;;9.75;94.99;99278.91;5025189;28;19925;-71
2023/11/10 08:18:32;;;;;;;;;;;;;;;9.94;93.34;99291.44;5027931;28;20411;-72
2023/11/10 08:21:00;;;;;;;;;;;;;;;9.90;93.12;99287.38;5028860;28;20024;-70
2023/11/10 08:23:27;;;;;;;;;;;;;;;9.94;91.71;99277.47;5022966;28;19965;-67
2023/11/10 08:25:55;;;;;;;;;;;;;;;9.90;92.10;99280.31;5025339;28;19957;-67
2023/11/10 08:28:22;;;;;;;;;;;;;;;9.83;91.67;99283.56;5028171;28;19964;-67
2023/11/10 08:30:50;;;;;;;;;;;;;;;9.79;90.72;99271.63;5028364;28;20016;-68
2023/11/10 08:33:17;;;;;;;;;;;;;;;9.95;91.81;99277.38;5021645;28;20359;-65
2023/11/10 08:35:44;;;;;;;;;;;;;;;10.04;89.53;99283.69;5024114;28;19947;-67
2023/11/10 08:38:11;;;;;;;;;;;;;;;10.08;89.68;99280.69;5027244;28;19925;-65
2023/11/10 08:40:39;;;;;;;;;;;;;;;9.99;88.66;99291.91;5029612;28;19967;-66
2023/11/10 08:43:06;;;;;;;;;;;;;;;10.10;88.88;99281.41;5025994;28;19956;-66
2023/11/10 08:45:33;;;;;;;;;;;;;;;10.21;88.40;99290.25;4965175;28;1800712;-67
2023/11/10 08:48:00;;;;;;;;;;;;;;;10.12;88.41;99303.16;5030039;28;19929;-68
2023/11/10 08:50:28;;;;;;;;;;;;;;;10.28;87.68;99312.53;5026914;28;19964;-66
2023/11/10 08:52:55;;;;;;;;;;;;;;;10.32;86.82;99300.81;5034920;28;19933;-69
2023/11/10 08:55:22;;;;;;;;;;;;;;;10.20;86.78;99299.09;5029347;28;20451;-67
2023/11/10 08:57:50;;;;;;;;;;;;;;;10.09;86.15;99298.16;5024335;28;19987;-66
2023/11/10 09:00:18;;;;;;;;;;;;;;;10.12;86.27;99305.78;5027916;28;19933;-66
2023/11/10 09:02:45;;;;;;;;;;;;;;;10.07;86.61;99307.09;5028450;28;19932;-68
2023/11/10 09:05:13;;;;;;;;;;;;;;;9.96;86.66;99302.69;5024337;28;19975;-67
2023/11/10 09:07:41;;;;;;;;;;;;;;;9.95;86.66;99292.28;5029882;28;21530;-68
2023/11/10 09:10:10;;;;;;;;;;;;;;;10.00;86.31;99308.56;5010620;28;20032;-67
2023/11/10 09:12:42;;;;;;;;;;;;;;;9.93;86.61;99302.94;5029400;28;19929;-68
2023/11/10 09:15:14;;;;;;;;;;;;;;;10.06;86.57;99308.91;5028192;28;19925;-71
2023/11/10 09:17:44;;;;;;;;;;;;;;;10.33;86.14;99299.84;5023271;28;21456;-70
2023/11/10 09:20:15;;;;;;;;;;;;;;;10.59;84.51;99290.72;5024859;28;20011;-66
2023/11/10 09:22:43;;;;;;;;;;;;;;;10.79;83.48;99291.72;5022312;28;20478;-66
2023/11/10 09:25:15;;;;;;;;;;;;;;;10.97;82.98;99297.28;5025648;28;19979;-70
2023/11/10 09:27:43;;;;;;;;;;;;;;;11.13;82.68;99295.09;5025643;28;19992;-71
2023/11/10 09:30:11;;;;;;;;;;;;;;;10.99;81.89;99286.66;5029181;28;20032;-69
2023/11/10 09:32:38;;;;;;;;;;;;;;;10.86;82.48;99277.13;5028123;28;19924;-71
2023/11/10 09:35:05;;;;;;;;;;;;;;;10.96;81.47;99282.47;5025103;28;20418;-68
2023/11/10 09:37:36;;;;;;;;;;;;;;;11.11;82.23;99275.94;5027114;28;20477;-70
2023/11/10 09:40:04;;;;;;;;;;;;;;;11.31;81.32;99274.28;5021691;28;19940;-66
2023/11/10 09:42:31;;;;;;;;;;;;;;;11.36;81.04;99281.81;5027702;28;19933;-67
2023/11/10 09:44:58;;;;;;;;;;;;;;;11.24;81.36;99275.75;5024767;28;19929;-66
2023/11/10 09:47:26;;;;;;;;;;;;;;;11.41;81.59;99279.63;5029270;28;20015;-69
2023/11/10 09:49:53;;;;;;;;;;;;;;;11.41;81.15;99292.78;5025807;28;19980;-65
2023/11/10 09:52:20;;;;;;;;;;;;;;;11.28;81.68;99274.53;5028428;28;19930;-66
2023/11/10 09:54:48;;;;;;;;;;;;;;;11.03;82.94;99275.75;5021798;28;19925;-69
2023/11/10 09:57:15;;;;;;;;;;;;;;;11.16;82.99;99284.28;5007516;28;19933;-67
2023/11/10 09:59:44;;;;;;;;;;;;;;;11.18;83.56;99275.44;5027812;28;20560;-67
2023/11/10 10:02:14;;;;;;;;;;;;;;;11.37;82.29;99278.19;5019227;28;20019;-64
2023/11/10 10:04:42;;;;;;;;;;;;;;;11.29;81.32;99278.84;5006873;28;19929;-66
2023/11/10 10:07:12;;;;;;;;;;;;;;;11.38;81.83;99279.88;5022302;28;20378;-68
2023/11/10 10:09:40;;;;;;;;;;;;;;;11.43;80.46;99272.41;5023142;28;19933;-67
2023/11/10 10:12:08;;;;;;;;;;;;;;;11.34;80.89;99278.44;5018796;28;20080;-68
2023/11/10 10:14:37;;;;;;;;;;;;;;;11.29;80.82;99280.63;5022711;28;19925;-71
2023/11/10 10:17:04;;;;;;;;;;;;;;;11.30;81.60;99272.63;5024550;28;19925;-70
2023/11/10 10:19:32;;;;;;;;;;;;;;;11.49;81.41;99271.91;5020026;28;19936;-67
2023/11/10 10:21:59;;;;;;;;;;;;;;;11.59;82.11;99267.53;5004095;28;19969;-70
2023/11/10 10:24:27;;;;;;;;;;;;;;;11.63;81.36;99266.31;5024854;28;21012;-67
2023/11/10 10:26:55;;;;;;;;;;;;;;;11.60;80.95;99274.47;5023599;28;19976;-69
2023/11/10 10:29:23;;;;;;;;;;;;;;;11.32;80.60;99257.50;5023829;28;19953;-69
2023/11/10 10:31:54;;;;;;;;;;;;;;;11.23;81.52;99260.09;5022043;28;19926;-67
2023/11/10 10:34:22;;;;;;;;;;;;;;;11.22;81.91;99261.06;5024952;28;19940;-65
2023/11/10 10:36:49;;;;;;;;;;;;;;;11.04;82.56;99251.06;5018802;28;19937;-67
2023/11/10 10:39:17;;;;;;;;;;;;;;;11.08;82.59;99256.94;5019730;28;20453;-65
2023/11/10 10:41:47;;;;;;;;;;;;;;;11.24;82.41;99264.38;5044242;28;20004;-67
2023/11/10 10:44:14;;;;;;;;;;;;;;;11.18;81.87;99260.47;5024861;28;19975;-66
2023/11/10 10:46:42;;;;;;;;;;;;;;;11.16;81.96;99265.84;5027668;28;19925;-66
2023/11/10 10:49:12;;;;;;;;;;;;;;;11.03;82.15;99266.97;5008430;28;19952;-66
2023/11/10 10:51:39;;;;;;;;;;;;;;;10.95;82.80;99258.91;5024211;28;20303;-67
2023/11/10 10:54:07;;;;;;;;;;;;;;;10.91;83.13;99250.41;5018792;28;19925;-68
2023/11/10 10:56:35;;;;;;;;;;;;;;;10.75;83.88;99257.88;5028733;28;19936;-67
2023/11/10 10:59:11;;;;;;;;;;;;;;;10.78;84.17;99249.75;5023203;28;19933;-65
2023/11/10 11:01:40;;;;;;;;;;;;;;;10.81;83.16;99249.50;5016293;28;20024;-64
2023/11/10 11:04:07;;;;;;;;;;;;;;;10.75;84.11;99250.81;5005505;28;20438;-65
2023/11/10 11:06:50;;;;;;;;;;;;;;;10.89;84.14;99244.41;5023141;28;19929;-66
2023/11/10 11:09:32;;;;;;;;;;;;;;;11.07;83.53;99239.44;5025049;28;19961;-66
2023/11/10 11:11:59;;;;;;;;;;;;;;;11.31;83.10;99233.94;5010309;28;20289;-67
2023/11/10 11:14:41;;;;;;;;;;;;;;;11.26;82.11;99228.22;5027422;28;20598;-67
2023/11/10 11:17:28;;;;;;;;;;;;;;;11.26;81.54;99223.78;5019514;28;19925;-66
2023/11/10 11:19:55;;;;;;;;;;;;;;;11.27;81.64;99222.81;5018009;28;20429;-69
2023/11/10 11:22:22;;;;;;;;;;;;;;;11.25;81.48;99218.63;5023856;28;19933;-70
2023/11/10 11:24:49;;;;;;;;;;;;;;;11.40;82.16;99226.09;5025592;28;19995;-70
2023/11/10 11:27:40;;;;;;;;;;;;;;;11.45;81.42;99230.97;5018585;28;19983;-66
2023/11/10 11:30:08;;;;;;;;;;;;;;;11.38;80.80;99228.00;5024662;28;19929;-66
2023/11/10 11:32:41;;;;;;;;;;;;;;;11.25;80.58;99214.19;5025065;28;19929;-66
2023/11/10 11:35:12;;;;;;;;;;;;;;;11.15;81.10;99227.31;5024764;28;20562;-65
2023/11/10 11:37:40;;;;;;;;;;;;;;;10.89;82.09;99215.47;5023710;28;19925;-66
2023/11/10 11:40:09;;;;;;;;;;;;;;;11.06;81.08;99211.44;5021358;28;19933;-65
2023/11/10 11:42:38;;;;;;;;;;;;;;;11.07;80.60;99221.84;5023711;28;20329;-67
2023/11/10 11:45:12;;;;;;;;;;;;;;;11.11;79.87;99233.78;5041433;28;19951;-66
2023/11/10 11:47:40;;;;;;;;;;;;;;;10.81;79.97;99223.19;5026214;28;19929;-69
2023/11/10 11:50:12;;;;;;;;;;;;;;;10.64;81.31;99248.25;5028904;28;20385;-68
2023/11/10 11:52:40;;;;;;;;;;;;;;;10.54;81.39;99221.84;5024718;28;20467;-68
2023/11/10 11:55:08;;;;;;;;;;;;;;;10.57;81.93;99229.47;5022260;28;19925;-67
2023/11/10 11:57:37;;;;;;;;;;;;;;;10.48;81.86;99218.84;5029657;28;20414;-69
2023/11/10 12:00:10;;;;;;;;;;;;;;;10.46;81.95;99216.34;5016676;28;20010;-70
2023/11/10 12:02:39;;;;;;;;;;;;;;;10.58;82.20;99219.78;5028225;28;20339;-69
2023/11/10 12:05:13;;;;;;;;;;;;;;;10.72;81.65;99210.78;5013286;28;19976;-69
2023/11/10 12:07:42;;;;;;;;;;;;;;;10.75;81.17;99208.72;5024594;28;19995;-66
2023/11/10 12:10:14;;;;;;;;;;;;;;;10.87;81.36;99214.78;5029057;28;19998;-68
2023/11/10 12:12:41;;;;;;;;;;;;;;;11.01;80.71;99213.63;5032425;28;19975;-69
2023/11/10 12:15:10;;;;;;;;;;;;;;;11.77;78.51;99212.41;5009257;28;19991;-69
2023/11/10 12:17:38;;;;;;;;;;;;;;;12.29;74.90;99218.44;5027656;28;19937;-69
2023/11/10 12:20:08;;;;;;;;;;;;;;;12.02;73.55;99229.63;4988298;28;19929;-70
2023/11/10 12:22:52;;;;;;;;;;;;;;;11.33;76.58;99216.19;5022349;28;19951;-68
2023/11/10 12:25:23;;;;;;;;;;;;;;;11.01;77.96;99211.00;5007628;28;19933;-68
2023/11/10 12:27:53;;;;;;;;;;;;;;;10.91;79.04;99226.72;5008251;28;20287;-68
2023/11/10 12:30:20;;;;;;;;;;;;;;;10.60;79.63;99229.22;5027630;28;19925;-69
2023/11/10 12:32:48;;;;;;;;;;;;;;;10.54;80.39;99219.22;5030486;28;20012;-69
2023/11/10 12:35:15;;;;;;;;;;;;;;;10.50;81.07;99223.03;4996500;28;19972;-68
2023/11/10 12:37:43;;;;;;;;;;;;;;;10.31;81.42;99212.31;5009368;28;19955;-69
2023/11/10 12:40:11;;;;;;;;;;;;;;;10.29;81.63;99215.06;5019343;28;20259;-68
2023/11/10 12:42:39;;;;;;;;;;;;;;;10.15;83.02;99260.03;5023072;28;19932;-68
2023/11/10 12:45:07;;;;;;;;;;;;;;;9.99;84.61;99231.44;5005429;28;19925;-69
2023/11/10 12:47:36;;;;;;;;;;;;;;;9.99;86.30;99241.13;5019580;28;19981;-69
2023/11/10 12:50:13;;;;;;;;;;;;;;;10.01;87.33;99232.19;5024974;28;19926;-69
2023/11/10 12:53:12;;;;;;;;;;;;;;;9.97;87.63;99240.44;5016527;28;19957;-68